createdAt,value
2019-05-21T00:03:41.999Z,75.47
2019-05-21T00:08:48.067Z,75.70
2019-05-21T00:13:53.940Z,76.33
2019-05-21T00:18:59.810Z,76.73
2019-05-21T00:24:05.781Z,76.64
2019-05-21T00:30:06.222Z,77.23
2019-05-21T00:36:06.856Z,77.50
2019-05-21T00:42:01.505Z,78.08
2019-05-21T00:47:10.440Z,78.28
2019-05-21T00:52:16.609Z,78.64
2019-05-21T00:57:22.628Z,78.98
2019-05-21T01:02:29.677Z,79.50
2019-05-21T01:07:35.650Z,79.21
2019-05-21T01:12:41.619Z,80.38
2019-05-21T01:17:49.153Z,80.90
2019-05-21T01:22:55.098Z,81.24
2019-05-21T01:28:01.069Z,81.43
2019-05-21T01:33:07.041Z,81.64
2019-05-21T01:38:13.215Z,81.80
2019-05-21T01:43:20.109Z,81.79
2019-05-21T01:48:26.082Z,81.67
2019-05-21T01:53:32.049Z,81.72
2019-05-21T01:58:38.022Z,81.68
2019-05-21T02:03:44.193Z,81.76
2019-05-21T02:08:50.266Z,81.73
2019-05-21T02:13:56.232Z,82.10
2019-05-21T02:19:02.196Z,81.93
2019-05-21T02:24:08.419Z,81.99
2019-05-21T02:29:14.452Z,81.34
2019-05-21T02:34:20.428Z,81.38
2019-05-21T02:39:26.310Z,80.62
2019-05-21T02:44:32.267Z,80.78
2019-05-21T02:49:38.238Z,80.47
2019-05-21T02:54:45.233Z,80.43
2019-05-21T02:59:52.842Z,79.71
2019-05-21T03:04:58.812Z,80.00
2019-05-21T03:10:05.504Z,80.05
2019-05-21T03:15:11.881Z,80.31
2019-05-21T03:20:17.954Z,79.95
2019-05-21T03:25:24.029Z,80.06
2019-05-21T03:30:30.112Z,79.61
2019-05-21T03:35:36.176Z,79.43
2019-05-21T03:40:43.069Z,79.81
2019-05-21T03:45:49.034Z,79.32
2019-05-21T03:50:55.416Z,78.88
2019-05-21T03:56:01.398Z,78.60
2019-05-21T04:01:07.408Z,78.62
2019-05-21T04:06:13.342Z,78.98
2019-05-21T04:11:19.406Z,78.80
2019-05-21T04:16:40.226Z,78.00
2019-05-21T04:21:46.398Z,77.39
2019-05-21T04:26:52.471Z,77.41
2019-05-21T04:31:58.466Z,76.49
2019-05-21T04:37:11.009Z,76.81
2019-05-21T04:42:12.841Z,77.61
2019-05-21T04:47:19.253Z,76.79
2019-05-21T04:52:26.506Z,75.50
2019-05-21T04:57:32.619Z,75.84
2019-05-21T05:02:41.521Z,75.28
2019-05-21T05:07:46.775Z,75.78
2019-05-21T05:12:52.782Z,75.04
2019-05-21T05:17:58.828Z,75.00
2019-05-21T05:23:04.913Z,73.73
2019-05-21T05:28:11.623Z,74.08
2019-05-21T05:33:17.732Z,73.98
2019-05-21T05:38:23.851Z,73.18
2019-05-21T05:43:30.326Z,72.99
2019-05-21T05:48:37.951Z,73.25
2019-05-21T05:53:59.382Z,73.00
2019-05-21T05:59:05.992Z,72.88
2019-05-21T06:04:12.028Z,73.05
2019-05-21T06:09:18.045Z,72.92
2019-05-21T06:14:24.119Z,72.86
2019-05-21T06:19:30.385Z,73.04
2019-05-21T06:24:36.709Z,73.29
2019-05-21T06:29:43.248Z,73.32
2019-05-21T06:34:49.488Z,72.21
2019-05-21T06:39:55.575Z,71.98
2019-05-21T06:45:01.849Z,70.02
2019-05-21T06:50:08.691Z,66.48
2019-05-21T06:55:14.834Z,67.60
2019-05-21T07:00:21.686Z,66.45
2019-05-21T07:05:28.125Z,67.17
2019-05-21T07:10:34.773Z,65.81
2019-05-21T07:15:40.840Z,66.77
2019-05-21T07:20:47.019Z,68.15
2019-05-21T07:25:53.128Z,66.72
2019-05-21T07:30:59.097Z,66.33
2019-05-21T07:36:05.594Z,66.14
2019-05-21T07:41:11.626Z,66.55
2019-05-21T07:46:17.768Z,66.13
2019-05-21T07:51:23.815Z,66.02
2019-05-21T07:56:29.944Z,65.42
2019-05-21T08:01:36.916Z,65.94
2019-05-21T08:06:43.088Z,64.69
2019-05-21T08:11:49.835Z,66.76
2019-05-21T08:16:56.076Z,63.02
2019-05-21T08:22:02.559Z,62.45
2019-05-21T08:27:08.835Z,60.78
2019-05-21T08:32:14.911Z,63.33
2019-05-21T08:37:20.983Z,61.60
2019-05-21T08:42:27.891Z,62.04
2019-05-21T08:47:34.187Z,64.19
2019-05-21T08:52:40.366Z,60.82
2019-05-21T08:58:03.761Z,57.98
2019-05-21T09:02:54.695Z,59.29
2019-05-21T09:08:00.797Z,59.84
2019-05-21T09:13:07.089Z,59.15
2019-05-21T09:18:13.111Z,57.44
2019-05-21T09:23:19.529Z,59.77
2019-05-21T09:28:25.529Z,59.78
2019-05-21T09:33:32.090Z,59.25
2019-05-21T09:38:38.021Z,59.31
2019-05-21T09:43:44.037Z,56.93
2019-05-21T09:48:50.205Z,56.25
2019-05-21T09:53:56.280Z,56.15
2019-05-21T09:59:23.235Z,55.49
2019-05-21T10:04:29.464Z,59.21
2019-05-21T10:09:36.038Z,57.54
2019-05-21T10:14:42.177Z,57.88
2019-05-21T10:19:48.507Z,56.05
2019-05-21T10:24:54.545Z,58.10
2019-05-21T10:30:00.705Z,53.60
2019-05-21T10:35:07.654Z,55.55
2019-05-21T10:40:14.911Z,56.27
2019-05-21T10:45:21.491Z,55.29
2019-05-21T10:50:27.967Z,53.48
2019-05-21T10:55:34.197Z,50.67
2019-05-21T11:00:40.728Z,52.39
2019-05-21T11:05:51.416Z,54.31
2019-05-21T11:10:57.588Z,47.05
2019-05-21T11:16:05.095Z,49.33
2019-05-21T11:21:11.205Z,48.82
2019-05-21T11:26:17.467Z,48.50
2019-05-21T11:31:24.146Z,51.49
2019-05-21T11:36:30.302Z,49.94
2019-05-21T11:41:36.705Z,51.24
2019-05-21T11:46:42.753Z,51.35
2019-05-21T11:51:48.932Z,50.33
2019-05-21T11:56:55.110Z,47.73
2019-05-21T12:02:01.257Z,47.84
2019-05-21T12:07:07.363Z,51.04
2019-05-21T12:12:13.939Z,51.92
2019-05-21T12:17:20.353Z,52.98
2019-05-21T12:22:26.449Z,52.61
2019-05-21T12:27:32.531Z,51.30
2019-05-21T12:32:39.406Z,49.61
2019-05-21T12:37:45.441Z,50.96
2019-05-21T12:42:51.958Z,51.28
2019-05-21T12:47:58.352Z,49.92
2019-05-21T12:53:04.421Z,47.80
2019-05-21T12:58:10.655Z,48.93
2019-05-21T13:03:17.036Z,49.02
2019-05-21T13:08:23.506Z,48.20
2019-05-21T13:13:29.994Z,50.32
2019-05-21T13:18:36.536Z,50.09
2019-05-21T13:23:42.793Z,49.21
2019-05-21T13:28:49.156Z,49.52
2019-05-21T13:33:56.046Z,51.18
2019-05-21T13:39:02.667Z,51.52
2019-05-21T13:44:09.815Z,54.01
2019-05-21T13:49:16.663Z,52.79
2019-05-21T13:54:23.163Z,52.55
2019-05-21T13:59:29.680Z,50.63
2019-05-21T14:04:36.671Z,50.46
2019-05-21T14:09:42.861Z,49.29
2019-05-21T14:14:49.447Z,50.14
2019-05-21T14:19:55.553Z,49.76
2019-05-21T14:25:01.804Z,48.50
2019-05-21T14:30:11.870Z,50.26
2019-05-21T14:35:18.226Z,49.58
2019-05-21T14:40:31.611Z,50.86
2019-05-21T14:45:34.586Z,50.33
2019-05-21T14:50:40.958Z,51.33
2019-05-21T14:55:47.225Z,51.31
2019-05-21T15:00:53.463Z,53.25
2019-05-21T15:05:59.481Z,54.24
2019-05-21T15:11:05.650Z,54.85
2019-05-21T15:16:12.644Z,56.14
2019-05-21T15:21:20.364Z,58.95
2019-05-21T15:26:26.946Z,69.00
2019-05-21T15:31:33.361Z,74.60
2019-05-21T15:36:40.429Z,76.47
2019-05-21T15:41:46.557Z,77.42
2019-05-21T15:46:53.083Z,76.71
2019-05-21T15:51:59.435Z,77.19
2019-05-21T15:57:05.289Z,77.06
2019-05-21T16:02:11.418Z,77.17
2019-05-21T16:07:17.505Z,76.08
2019-05-21T16:12:23.499Z,76.00
2019-05-21T16:17:29.947Z,75.92
2019-05-21T16:22:36.100Z,74.71
2019-05-21T16:27:42.349Z,72.58
2019-05-21T16:32:48.731Z,72.63
2019-05-21T16:37:55.353Z,72.83
2019-05-21T16:43:01.425Z,72.14
2019-05-21T16:48:08.096Z,70.17
2019-05-21T16:53:14.553Z,71.32
2019-05-21T16:58:20.617Z,70.41
2019-05-21T17:03:26.637Z,69.13
2019-05-21T17:08:32.763Z,69.16
2019-05-21T17:13:38.690Z,69.75
2019-05-21T17:18:45.268Z,67.21
2019-05-21T17:23:51.344Z,70.77
2019-05-21T17:28:57.419Z,74.24
2019-05-21T17:34:03.482Z,77.84
2019-05-21T17:39:09.995Z,80.63
2019-05-21T17:44:16.031Z,80.63
2019-05-21T17:49:22.109Z,81.49
2019-05-21T17:54:28.103Z,80.33
2019-05-21T17:59:34.297Z,80.48
2019-05-21T18:04:41.454Z,81.84
2019-05-21T18:09:47.955Z,81.55
2019-05-21T18:14:54.249Z,81.46
2019-05-21T18:20:02.144Z,81.42
2019-05-21T18:25:10.490Z,81.14
2019-05-21T18:30:18.073Z,81.35
2019-05-21T18:35:24.966Z,80.76
2019-05-21T18:40:31.036Z,79.32
2019-05-21T18:45:37.311Z,75.70
2019-05-21T18:50:43.614Z,76.80
2019-05-21T18:55:49.862Z,77.55
2019-05-21T19:00:56.051Z,77.47
2019-05-21T19:06:02.216Z,77.00
2019-05-21T19:11:08.604Z,76.89
2019-05-21T19:16:14.773Z,76.87
2019-05-21T19:21:21.052Z,76.22
2019-05-21T19:26:27.229Z,76.06
2019-05-21T19:31:33.512Z,75.52
2019-05-21T19:36:39.513Z,75.81
2019-05-21T19:41:45.452Z,75.99
2019-05-21T19:46:51.415Z,76.26
2019-05-21T19:51:57.600Z,76.89
2019-05-21T19:57:03.769Z,77.55
2019-05-21T20:02:10.402Z,77.57
2019-05-21T20:07:17.882Z,77.43
2019-05-21T20:12:25.161Z,77.23
2019-05-21T20:17:33.176Z,78.00
2019-05-21T20:22:41.406Z,78.69
2019-05-21T20:27:48.297Z,78.40
2019-05-21T20:32:54.601Z,78.52
2019-05-21T20:38:01.977Z,78.46
2019-05-21T20:43:08.211Z,78.93
2019-05-21T20:48:15.089Z,79.59
2019-05-21T20:53:22.042Z,79.49
2019-05-21T20:58:28.728Z,79.37
2019-05-21T21:03:36.133Z,78.87
2019-05-21T21:08:42.102Z,79.59
2019-05-21T21:13:49.614Z,79.77
2019-05-21T21:18:55.575Z,79.20
2019-05-21T21:24:02.712Z,79.12
2019-05-21T21:29:09.674Z,79.53
2019-05-21T21:34:17.087Z,79.05
2019-05-21T21:39:23.143Z,79.27
2019-05-21T21:44:34.214Z,80.01
2019-05-21T21:49:36.502Z,79.84
2019-05-21T21:54:43.826Z,79.48
2019-05-21T21:59:50.100Z,79.67
2019-05-21T22:04:57.869Z,79.84
2019-05-21T22:10:07.059Z,79.78
2019-05-21T22:15:13.433Z,79.67
2019-05-21T22:20:19.410Z,79.12
2019-05-21T22:25:25.385Z,79.00
2019-05-21T22:30:31.865Z,79.34
2019-05-21T22:35:39.175Z,79.00
2019-05-21T22:40:45.344Z,78.95
2019-05-21T22:45:51.836Z,79.77
2019-05-21T22:50:57.794Z,80.00
2019-05-21T22:56:03.771Z,80.29
2019-05-21T23:01:11.688Z,80.54
2019-05-21T23:06:16.932Z,80.70
2019-05-21T23:11:23.326Z,80.40
2019-05-21T23:16:31.439Z,79.77
2019-05-21T23:21:49.904Z,79.75
2019-05-21T23:26:56.392Z,80.16
2019-05-21T23:32:02.872Z,80.19
2019-05-21T23:37:10.694Z,80.44
2019-05-21T23:42:28.673Z,80.21
2019-05-21T23:47:23.754Z,80.10
2019-05-21T23:52:31.670Z,80.40
2019-05-21T23:57:37.411Z,80.69
